Time;durP1;ratioP1;P1;durP2;ratioP2;P2;SDS_P1;SDS_P2;PMS_P1;PMS_P2;Temp;Humidity;BMP_temperature;BMP_pressure;BME280_temperature;BME280_humidity;BME280_pressure;Samples;Min_cycle;Max_cycle;Signal;HPM_P1;HPM_P2
2023/03/09 00:00:35;;;;;;;6.90;5.10;;;;;;;4.19;76.69;97209.48;105233;1264;61668;-23
2023/03/09 00:03:03;;;;;;;11.60;5.90;;;;;;;4.57;75.39;97205.02;105263;1266;61928;-24
2023/03/09 00:05:30;;;;;;;14.00;6.60;;;;;;;4.55;74.94;97194.05;105252;1264;73678;-23
2023/03/09 00:07:57;;;;;;;11.60;7.10;;;;;;;4.33;74.78;97189.90;105250;1261;75922;-24
2023/03/09 00:10:24;;;;;;;12.80;8.20;;;;;;;4.05;75.11;97191.73;105277;1261;73777;-23
2023/03/09 00:12:51;;;;;;;11.40;7.60;;;;;;;3.74;75.67;97185.87;105283;1260;61224;-24
2023/03/09 00:15:18;;;;;;;10.90;6.70;;;;;;;3.44;76.70;97178.04;105243;1265;61983;-24
2023/03/09 00:17:47;;;;;;;8.40;5.10;;;;;;;3.24;77.27;97169.57;105234;1261;74366;-24
2023/03/09 00:20:18;;;;;;;9.40;6.50;;;;;;;3.65;77.82;97162.95;105260;1260;75574;-24
2023/03/09 00:22:51;;;;;;;10.80;5.80;;;;;;;4.23;76.46;97150.53;105235;1261;74168;-24
2023/03/09 00:25:21;;;;;;;10.10;6.70;;;;;;;4.28;75.43;97144.77;105211;1261;61719;-24
2023/03/09 00:27:51;;;;;;;9.10;6.30;;;;;;;4.09;75.59;97141.23;105102;1269;61879;-24
2023/03/09 00:30:19;;;;;;;13.80;7.50;;;;;;;3.84;75.96;97136.16;104919;1261;74845;-24
2023/03/09 00:32:49;;;;;;;10.10;7.10;;;;;;;3.57;76.59;97127.70;105266;1266;75866;-24
2023/03/09 00:35:19;;;;;;;9.30;6.60;;;;;;;3.34;77.16;97126.38;105186;1261;74187;-24
2023/03/09 00:37:47;;;;;;;8.90;5.20;;;;;;;3.16;77.92;97121.30;105069;1260;62591;-24
2023/03/09 00:40:14;;;;;;;9.60;6.00;;;;;;;3.59;78.11;97112.17;105092;1261;61467;-24
2023/03/09 00:42:44;;;;;;;12.40;6.60;;;;;;;4.14;76.69;97108.54;105062;1263;73541;-24
2023/03/09 00:45:12;;;;;;;11.90;6.80;;;;;;;4.19;75.82;97104.52;104995;1264;75861;-24
2023/03/09 00:47:40;;;;;;;8.90;5.90;;;;;;;4.01;75.92;97095.08;105616;1258;73001;-24
2023/03/09 00:50:08;;;;;;;16.20;7.20;;;;;;;3.78;76.31;97093.05;105619;1259;61163;-25
2023/03/09 00:52:36;;;;;;;18.20;7.80;;;;;;;3.58;76.89;97099.17;105383;1258;61198;-24
2023/03/09 00:55:04;;;;;;;19.10;7.80;;;;;;;3.39;77.33;97094.52;105670;1257;74128;-24
2023/03/09 00:57:32;;;;;;;8.10;4.70;;;;;;;3.29;77.83;97088.49;105192;1257;74847;-24
2023/03/09 01:00:01;;;;;;;14.40;6.20;;;;;;;3.76;77.54;97075.34;105528;1257;74377;-23
2023/03/09 01:02:28;;;;;;;15.20;6.50;;;;;;;4.24;75.88;97070.02;105505;1263;61144;-24
2023/03/09 01:04:55;;;;;;;10.00;7.60;;;;;;;4.23;75.16;97057.93;105508;1263;61482;-25
2023/03/09 01:07:23;;;;;;;7.70;4.60;;;;;;;4.04;75.35;97050.14;105387;1257;74477;-26
2023/03/09 01:09:50;;;;;;;15.30;7.20;;;;;;;3.76;76.07;97051.14;105617;1260;75583;-26
2023/03/09 01:12:18;;;;;;;9.80;7.10;;;;;;;3.57;76.66;97049.84;105506;1258;74085;-25
2023/03/09 01:14:48;;;;;;;9.60;6.70;;;;;;;3.43;77.26;97049.35;105414;1259;61224;-25
2023/03/09 01:17:15;;;;;;;8.20;5.40;;;;;;;3.80;76.80;97049.27;105301;1260;61933;-25
2023/03/09 01:19:44;;;;;;;11.50;6.50;;;;;;;4.19;75.21;97055.02;105323;1257;74578;-24
2023/03/09 01:22:13;;;;;;;12.30;7.10;;;;;;;4.23;74.61;97060.73;105430;1258;75886;-25
2023/03/09 02:52:34;;;;;;;8.80;5.90;;;;;;;4.44;80.02;96966.79;103902;1283;61158;-25
2023/03/09 02:55:03;;;;;;;10.00;6.60;;;;;;;4.42;79.23;96956.31;105208;1269;61783;-25
2023/03/09 02:57:30;;;;;;;8.90;6.40;;;;;;;4.27;79.30;96953.89;104781;1265;72811;-25
2023/03/09 02:59:58;;;;;;;11.30;6.40;;;;;;;4.03;79.72;96954.77;103734;1269;1982508;-25
2023/03/09 03:02:27;;;;;;;10.40;6.70;;;;;;;4.27;79.70;96955.95;105217;1262;74192;-25
2023/03/09 03:04:55;;;;;;;10.70;7.50;;;;;;;4.52;78.36;96958.68;105140;1266;61811;-25
2023/03/09 03:07:22;;;;;;;8.60;5.70;;;;;;;4.58;77.80;96954.02;105061;1265;61794;-24
2023/03/09 03:09:49;;;;;;;9.20;6.70;;;;;;;4.34;78.11;96947.56;104987;1268;73798;-24
2023/03/09 03:12:23;;;;;;;9.80;5.40;;;;;;;4.15;78.85;96946.90;105090;1264;75875;-26
2023/03/09 03:14:51;;;;;;;7.80;5.90;;;;;;;4.26;79.08;96949.11;105099;1264;74104;-24
2023/03/09 03:17:18;;;;;;;8.50;6.20;;;;;;;4.70;77.68;96941.75;105029;1266;61983;-24
2023/03/09 03:19:46;;;;;;;9.50;5.70;;;;;;;4.77;76.75;96941.84;105063;1270;61881;-24
2023/03/09 03:22:13;;;;;;;9.70;6.10;;;;;;;4.61;77.05;96942.39;105202;1266;74574;-24
2023/03/09 03:24:43;;;;;;;8.20;5.40;;;;;;;4.39;77.43;96936.34;105237;1267;75705;-24
2023/03/09 03:27:10;;;;;;;9.90;5.20;;;;;;;4.22;78.06;96938.48;105204;1261;74191;-24
2023/03/09 03:29:38;;;;;;;14.00;6.50;;;;;;;4.55;77.76;96941.27;105422;1260;61949;-24
2023/03/09 03:32:06;;;;;;;10.10;6.50;;;;;;;4.66;76.80;96937.18;105249;1270;61934;-25
2023/03/09 03:34:34;;;;;;;13.50;5.80;;;;;;;4.52;76.75;96934.36;105314;1266;74628;-24
2023/03/09 03:37:04;;;;;;;9.50;6.00;;;;;;;4.37;77.45;96939.59;105605;1263;75171;-24
2023/03/09 03:39:32;;;;;;;11.10;6.10;;;;;;;4.26;78.02;96935.04;105602;1264;74273;-25
2023/03/09 03:42:03;;;;;;;8.60;6.00;;;;;;;4.57;77.07;96930.95;105575;1261;61954;-24
2023/03/09 03:44:30;;;;;;;10.50;6.50;;;;;;;4.70;76.39;96929.77;105619;1260;61517;-24
2023/03/09 03:46:57;;;;;;;10.20;6.30;;;;;;;4.64;76.35;96929.46;105553;1258;74564;-25
2023/03/09 03:49:26;;;;;;;12.10;9.10;;;;;;;4.46;76.64;96923.87;105521;1262;75940;-24
2023/03/09 03:51:54;;;;;;;9.20;4.80;;;;;;;4.33;77.32;96917.49;105303;1263;74506;-24
2023/03/09 03:54:21;;;;;;;5.80;4.00;;;;;;;4.59;76.91;96919.41;105531;1258;61890;-25
2023/03/09 03:56:49;;;;;;;8.30;5.70;;;;;;;4.71;75.95;96916.73;105685;1260;61911;-25
2023/03/09 03:59:18;;;;;;;7.00;4.70;;;;;;;4.62;76.08;96921.87;105585;1260;74315;-24
2023/03/09 04:01:45;;;;;;;8.70;4.60;;;;;;;4.45;76.46;96924.30;105535;1260;75636;-24
2023/03/09 04:04:13;;;;;;;8.40;5.20;;;;;;;4.36;77.28;96925.05;105612;1254;73965;-24
2023/03/09 04:06:47;;;;;;;7.40;4.90;;;;;;;4.75;76.18;96915.36;105804;1254;61819;-25
2023/03/09 04:09:16;;;;;;;10.40;5.80;;;;;;;4.86;75.51;96923.98;105541;1260;61277;-25
2023/03/09 04:11:45;;;;;;;12.60;6.20;;;;;;;4.73;75.35;96925.53;105861;1256;74421;-24
2023/03/09 04:14:14;;;;;;;6.70;4.60;;;;;;;4.59;75.89;96925.42;105727;1254;75844;-24
2023/03/09 04:16:41;;;;;;;7.70;4.80;;;;;;;4.46;76.60;96931.42;105765;1254;74152;-24
2023/03/09 04:19:10;;;;;;;7.30;4.80;;;;;;;4.71;76.17;96928.47;105884;1256;61873;-25
2023/03/09 04:21:43;;;;;;;8.70;4.50;;;;;;;5.00;74.83;96928.59;105618;1257;61164;-25
2023/03/09 04:24:11;;;;;;;12.40;5.80;;;;;;;5.02;74.72;96923.79;105653;1261;74421;-24
2023/03/09 04:26:38;;;;;;;9.40;6.30;;;;;;;4.86;75.18;96922.63;105852;1266;75872;-24
2023/03/09 04:29:26;;;;;;;7.70;4.80;;;;;;;4.60;76.44;96925.30;105894;1256;74482;-24
2023/03/09 04:31:53;;;;;;;9.00;6.40;;;;;;;4.74;76.72;96926.42;105936;1254;61067;-24
2023/03/09 04:34:21;;;;;;;4.80;3.90;;;;;;;5.08;75.37;96924.23;105673;1259;61844;-24
2023/03/09 04:36:48;;;;;;;7.90;4.70;;;;;;;5.09;75.41;96926.17;105771;1257;74274;-25
2023/03/09 04:39:16;;;;;;;6.60;4.40;;;;;;;4.87;76.10;96922.39;105545;1260;75654;-24
2023/03/09 04:41:43;;;;;;;5.90;4.20;;;;;;;4.74;77.00;96922.67;105538;1255;74047;-24
2023/03/09 04:44:12;;;;;;;7.20;4.30;;;;;;;4.73;77.31;96921.92;105897;1254;62621;-25
2023/03/09 04:46:39;;;;;;;7.30;4.80;;;;;;;5.07;76.25;96918.48;105737;1258;61664;-24
2023/03/09 04:49:10;;;;;;;8.90;5.30;;;;;;;5.19;75.46;96912.86;105692;1260;73462;-25
2023/03/09 04:51:40;;;;;;;7.40;4.70;;;;;;;5.08;75.73;96919.41;105622;1257;75656;-24
2023/03/09 04:54:07;;;;;;;6.90;4.50;;;;;;;4.82;76.54;96912.73;105842;1257;72719;-24
2023/03/09 04:56:35;;;;;;;9.90;5.90;;;;;;;4.74;77.15;96912.39;105558;1260;61160;-25
2023/03/09 04:59:10;;;;;;;7.80;4.60;;;;;;;5.11;76.22;96907.83;105524;1256;62948;-25
2023/03/09 05:01:38;;;;;;;11.00;4.40;;;;;;;5.37;75.06;96912.63;105605;1255;74353;-25
2023/03/09 05:04:09;;;;;;;4.90;3.30;;;;;;;5.31;74.98;96906.98;105720;1260;75815;-25
2023/03/09 05:06:44;;;;;;;4.70;3.40;;;;;;;5.14;75.88;96908.70;105715;1257;74046;-24
2023/03/09 05:09:17;;;;;;;5.60;4.10;;;;;;;4.88;77.07;96913.48;105788;1252;61141;-25
2023/03/09 05:11:51;;;;;;;6.70;4.10;;;;;;;4.97;77.56;96917.02;105660;1257;61849;-25
2023/03/09 05:14:21;;;;;;;5.10;3.80;;;;;;;5.39;76.69;96917.43;105694;1258;73448;-27
2023/03/09 05:16:52;;;;;;;7.10;4.60;;;;;;;5.47;76.19;96919.42;105900;1255;76005;-28
2023/03/09 05:19:22;;;;;;;8.40;4.70;;;;;;;5.40;76.84;96920.92;105548;1254;74213;-28
2023/03/09 05:21:49;;;;;;;6.80;4.10;;;;;;;5.24;77.67;96923.46;105964;1255;61720;-27
2023/03/09 05:24:17;;;;;;;6.30;4.10;;;;;;;5.04;78.46;96922.85;105912;1256;61841;-28
2023/03/09 05:26:44;;;;;;;6.50;3.90;;;;;;;5.23;78.88;96920.58;105665;1254;74567;-27
2023/03/09 05:29:14;;;;;;;4.70;3.00;;;;;;;5.68;77.41;96920.36;105902;1256;75826;-28
2023/03/09 05:31:42;;;;;;;7.80;4.50;;;;;;;5.74;77.14;96922.23;105846;1256;74147;-28
2023/03/09 05:34:17;;;;;;;4.90;3.40;;;;;;;5.68;77.15;96924.55;105664;1254;61987;-27
2023/03/09 05:36:46;;;;;;;6.40;4.30;;;;;;;5.41;78.41;96922.04;105912;1256;61082;-27
2023/03/09 05:39:18;;;;;;;6.00;3.60;;;;;;;5.23;79.12;96916.52;105688;1258;74344;-27
2023/03/09 05:41:49;;;;;;;7.10;3.90;;;;;;;5.36;79.79;96924.41;105700;1257;75644;-27
2023/03/09 05:44:30;;;;;;;4.40;3.20;;;;;;;6.01;78.11;96925.73;105719;1257;74286;-27
2023/03/09 05:47:00;;;;;;;7.80;4.00;;;;;;;6.15;77.08;96926.33;105672;1254;61998;-27
2023/03/09 05:49:27;;;;;;;9.10;4.30;;;;;;;5.97;77.36;96929.51;105686;1259;61795;-27
2023/03/09 05:51:55;;;;;;;7.00;4.70;;;;;;;5.68;78.14;96931.10;105774;1257;74469;-26
2023/03/09 05:54:22;;;;;;;6.70;4.00;;;;;;;5.55;79.06;96928.51;105874;1255;75875;-27
2023/03/09 05:56:55;;;;;;;4.70;3.40;;;;;;;5.50;79.45;96928.95;105894;1256;73832;-28
2023/03/09 05:59:23;;;;;;;4.90;3.70;;;;;;;5.97;78.33;96931.89;105713;1254;61100;-27
2023/03/09 06:01:51;;;;;;;5.00;3.50;;;;;;;6.12;77.16;96932.56;105877;1256;61580;-27
2023/03/09 06:04:21;;;;;;;4.00;3.00;;;;;;;6.10;77.06;96925.90;105566;1260;74290;-27
2023/03/09 06:06:56;;;;;;;4.40;3.10;;;;;;;5.89;77.62;96924.29;105561;1254;75831;-27
2023/03/09 06:09:30;;;;;;;4.70;2.90;;;;;;;5.74;78.36;96923.38;105551;1254;74388;-28
2023/03/09 06:11:59;;;;;;;7.40;3.60;;;;;;;5.80;78.43;96918.94;105583;1260;63602;-27
2023/03/09 06:14:27;;;;;;;5.10;3.90;;;;;;;6.20;76.84;96921.51;105695;1253;61621;-27
2023/03/09 06:16:54;;;;;;;6.30;3.00;;;;;;;6.33;76.27;96923.52;105809;1256;74529;-28
2023/03/09 06:19:23;;;;;;;9.00;4.00;;;;;;;6.33;76.14;96921.41;105677;1255;76010;-28
2023/03/09 06:21:51;;;;;;;7.10;3.70;;;;;;;6.11;76.81;96920.80;105631;1257;74194;-28
2023/03/09 06:24:22;;;;;;;4.30;2.70;;;;;;;5.97;77.46;96919.52;105688;1254;61266;-30
2023/03/09 06:26:49;;;;;;;8.40;4.90;;;;;;;6.05;77.59;96926.65;105733;1260;61852;-29
2023/03/09 06:29:18;;;;;;;5.00;3.50;;;;;;;6.44;76.52;96933.13;105661;1259;74630;-28
2023/03/09 06:31:47;;;;;;;7.60;3.40;;;;;;;6.42;76.10;96929.81;105924;1254;75506;-29
2023/03/09 06:34:14;;;;;;;5.90;3.40;;;;;;;6.31;76.42;96935.39;105735;1257;74225;-27
2023/03/09 06:36:47;;;;;;;6.20;3.60;;;;;;;6.21;76.98;96935.05;105831;1252;61902;-27
2023/03/09 06:39:14;;;;;;;3.90;2.40;;;;;;;6.18;77.31;96935.62;105704;1259;61283;-25
2023/03/09 06:41:42;;;;;;;4.60;3.00;;;;;;;6.61;76.39;96933.39;105853;1254;74522;-25
2023/03/09 06:44:15;;;;;;;5.30;3.30;;;;;;;6.88;74.97;96925.39;105513;1260;76033;-25
2023/03/09 06:46:44;;;;;;;5.30;2.70;;;;;;;6.86;74.81;96930.73;105744;1257;74235;-26
2023/03/09 06:49:12;;;;;;;4.80;3.00;;;;;;;6.65;75.38;96924.83;105916;1254;61709;-26
2023/03/09 06:51:41;;;;;;;4.90;2.80;;;;;;;6.35;76.54;96924.98;105740;1254;61119;-25
2023/03/09 06:54:08;;;;;;;4.40;2.60;;;;;;;6.23;77.18;96923.29;105708;1254;73699;-26
2023/03/09 06:56:41;;;;;;;4.10;2.50;;;;;;;6.45;76.70;96920.05;105780;1256;75831;-26
2023/03/09 06:59:08;;;;;;;3.30;2.60;;;;;;;6.67;75.67;96920.83;105623;1255;74246;-26
2023/03/09 07:01:36;;;;;;;3.80;2.30;;;;;;;6.60;75.97;96917.78;105748;1255;61898;-26
2023/03/09 07:04:03;;;;;;;5.00;2.70;;;;;;;6.56;75.90;96918.20;105697;1254;61793;-26
2023/03/09 07:06:36;;;;;;;4.00;2.90;;;;;;;6.43;76.33;96916.47;105679;1255;75322;-26
2023/03/09 07:09:04;;;;;;;4.50;2.60;;;;;;;6.49;76.48;96921.20;105709;1260;75721;-26
2023/03/09 07:11:31;;;;;;;4.00;2.80;;;;;;;6.87;75.17;96918.03;105910;1254;73815;-26
2023/03/09 07:14:00;;;;;;;3.70;2.60;;;;;;;7.02;74.45;96924.83;105935;1256;61643;-26
2023/03/09 07:16:27;;;;;;;3.60;2.70;;;;;;;6.92;74.85;96925.11;105913;1256;61882;-26
2023/03/09 07:18:55;;;;;;;4.10;3.10;;;;;;;6.87;75.09;96919.62;105900;1254;75030;-26
2023/03/09 07:21:22;;;;;;;5.80;3.20;;;;;;;6.70;75.68;96916.06;105662;1254;75765;-26
2023/03/09 07:23:50;;;;;;;3.80;2.40;;;;;;;6.81;75.47;96916.70;105889;1254;73302;-25
2023/03/09 07:26:19;;;;;;;5.10;3.10;;;;;;;7.25;74.26;96917.15;105883;1254;61211;-26
2023/03/09 07:28:47;;;;;;;3.30;2.80;;;;;;;7.38;73.95;96916.39;105688;1254;62013;-26
2023/03/09 07:31:15;;;;;;;3.90;2.60;;;;;;;7.24;74.43;96911.94;105884;1256;75378;-26
2023/03/09 07:33:43;;;;;;;6.10;3.20;;;;;;;7.06;75.29;96912.50;105674;1257;75905;-26
2023/03/09 07:36:10;;;;;;;3.50;2.40;;;;;;;6.95;75.85;96907.38;105704;1254;74190;-25
2023/03/09 07:38:39;;;;;;;4.60;2.70;;;;;;;6.99;75.89;96905.41;105677;1254;63558;-25
2023/03/09 07:41:07;;;;;;;4.60;3.10;;;;;;;7.52;74.53;96909.98;105836;1257;61579;-26
2023/03/09 07:43:43;;;;;;;3.70;2.70;;;;;;;7.58;73.55;96905.55;105943;1254;74398;-26
2023/03/09 07:46:19;;;;;;;6.60;3.00;;;;;;;7.46;73.81;96903.80;105912;1257;75824;-26
2023/03/09 07:48:46;;;;;;;4.00;2.70;;;;;;;7.33;74.04;96899.94;105897;1254;73741;-26
2023/03/09 07:51:13;;;;;;;7.70;2.80;;;;;;;7.15;74.56;96903.81;105925;1257;61875;-26
2023/03/09 07:53:41;;;;;;;4.10;2.70;;;;;;;7.14;74.85;96910.70;106023;1257;61806;-24
2023/03/09 07:56:09;;;;;;;3.60;3.00;;;;;;;7.61;73.65;96914.56;105943;1254;75133;-24
2023/03/09 07:58:38;;;;;;;6.80;3.70;;;;;;;8.00;72.35;96913.14;105915;1254;75803;-24
2023/03/09 08:01:16;;;;;;;4.40;3.50;;;;;;;8.04;71.85;96919.32;105666;1260;74001;-24
2023/03/09 08:03:44;;;;;;;6.30;3.40;;;;;;;7.89;72.17;96916.23;105706;1254;61660;-24
2023/03/09 08:06:12;;;;;;;5.70;4.10;;;;;;;7.61;72.65;96918.20;105672;1260;61735;-24
2023/03/09 08:08:40;;;;;;;5.60;4.00;;;;;;;7.44;73.33;96916.08;105694;1254;75373;-24
2023/03/09 08:11:07;;;;;;;4.40;2.50;;;;;;;7.38;74.11;96918.27;105647;1256;75801;-24
2023/03/09 08:13:36;;;;;;;4.10;2.70;;;;;;;7.92;73.05;96920.41;105747;1254;73985;-24
2023/03/09 08:16:07;;;;;;;3.80;2.90;;;;;;;8.36;71.29;96921.38;105777;1253;62235;-24
2023/03/09 08:18:37;;;;;;;5.80;3.60;;;;;;;8.37;70.74;96917.55;105579;1259;61202;-24
2023/03/09 08:21:14;;;;;;;4.40;3.20;;;;;;;8.27;70.97;96919.52;105658;1254;74318;-24
2023/03/09 08:23:43;;;;;;;6.80;3.70;;;;;;;8.00;71.23;96918.27;105239;1255;75831;-24
2023/03/09 08:26:12;;;;;;;4.70;3.10;;;;;;;7.84;71.89;96922.16;105670;1259;74263;-24
2023/03/09 08:28:40;;;;;;;7.00;3.80;;;;;;;7.71;72.18;96924.27;105692;1260;61163;-24
2023/03/09 08:31:10;;;;;;;4.80;3.40;;;;;;;7.54;72.72;96921.84;105764;1252;61907;-26
2023/03/09 08:33:39;;;;;;;6.50;3.00;;;;;;;7.51;73.22;96919.05;105469;1254;76151;-25
2023/03/09 08:36:15;;;;;;;3.50;2.70;;;;;;;8.11;71.44;96917.48;105729;1256;75889;-25
2023/03/09 08:38:43;;;;;;;5.60;3.60;;;;;;;8.39;70.17;96915.46;105603;1258;73947;-24
2023/03/09 08:41:10;;;;;;;6.50;3.50;;;;;;;8.24;69.52;96918.59;105705;1260;62122;-24
2023/03/09 08:43:38;;;;;;;7.60;3.80;;;;;;;8.08;69.96;96916.30;105872;1254;61922;-25
2023/03/09 08:46:05;;;;;;;6.00;4.30;;;;;;;7.93;70.28;96911.05;105691;1256;74472;-25
2023/03/09 08:48:32;;;;;;;5.50;3.90;;;;;;;7.74;70.98;96913.59;105694;1256;75841;-24
2023/03/09 08:51:01;;;;;;;6.40;4.30;;;;;;;7.59;71.26;96909.93;105885;1255;74389;-25
2023/03/09 08:53:28;;;;;;;6.70;4.30;;;;;;;7.51;71.85;96912.41;105677;1254;61102;-25
2023/03/09 08:55:55;;;;;;;5.60;4.10;;;;;;;7.50;72.29;96911.70;105677;1252;61643;-24
2023/03/09 08:58:23;;;;;;;5.70;4.40;;;;;;;8.01;70.91;96910.64;105862;1253;75772;-25
2023/03/09 09:00:50;;;;;;;7.60;4.70;;;;;;;8.43;69.92;96904.88;105867;1254;75801;-24
2023/03/09 09:03:18;;;;;;;6.20;4.90;;;;;;;8.54;69.38;96911.30;105715;1254;74724;-24
2023/03/09 09:05:46;;;;;;;4.00;2.90;;;;;;;8.46;69.39;96909.49;105909;1254;61666;-24
2023/03/09 09:08:14;;;;;;;6.70;4.80;;;;;;;8.17;69.61;96907.41;105822;1257;61358;-26
2023/03/09 09:10:45;;;;;;;6.60;4.30;;;;;;;8.14;70.09;96903.23;105943;1254;75288;-26
2023/03/09 09:13:13;;;;;;;6.90;4.10;;;;;;;8.03;69.85;96903.29;105862;1256;75644;-27
2023/03/09 09:15:41;;;;;;;6.70;4.30;;;;;;;7.82;70.48;96892.85;105980;1257;74146;-26
2023/03/09 09:18:11;;;;;;;6.70;3.90;;;;;;;7.88;70.34;96895.70;105908;1252;62130;-26
2023/03/09 09:20:38;;;;;;;3.40;2.80;;;;;;;8.23;69.54;96897.26;105865;1254;61702;-25
2023/03/09 09:23:06;;;;;;;7.90;4.30;;;;;;;8.60;68.93;96897.04;105754;1254;75304;-26
2023/03/09 09:25:34;;;;;;;6.20;4.40;;;;;;;8.71;68.35;96899.42;105896;1257;75803;-27
2023/03/09 09:28:05;;;;;;;5.40;3.70;;;;;;;8.81;68.68;96896.73;105862;1254;73014;-25
2023/03/09 09:30:32;;;;;;;6.40;4.40;;;;;;;8.88;68.55;96899.17;105783;1257;61671;-27
2023/03/09 09:33:01;;;;;;;4.90;3.80;;;;;;;8.88;68.73;96897.27;105668;1252;61677;-26
2023/03/09 09:35:28;;;;;;;5.70;4.00;;;;;;;8.95;69.03;96894.13;105870;1254;75150;-27
2023/03/09 09:37:57;;;;;;;6.40;4.20;;;;;;;8.96;68.21;96893.31;105729;1257;75565;-27
2023/03/09 09:40:24;;;;;;;7.30;4.30;;;;;;;8.85;68.15;96892.05;105659;1259;74291;-27
2023/03/09 09:42:51;;;;;;;6.20;4.10;;;;;;;8.78;68.56;96891.46;105916;1255;61670;-26
2023/03/09 09:45:35;;;;;;;7.40;3.50;;;;;;;8.84;69.05;96891.02;105880;1257;61913;-25
2023/03/09 09:48:05;;;;;;;2.90;2.20;;;;;;;9.34;66.79;96888.27;105720;1254;75275;-27
2023/03/09 09:50:55;;;;;;;7.00;3.50;;;;;;;9.70;65.59;96894.45;105589;1254;74947;-27
2023/03/09 09:53:29;;;;;;;7.80;3.40;;;;;;;9.95;65.39;96893.69;105714;1257;74065;-26
2023/03/09 09:55:56;;;;;;;4.90;3.40;;;;;;;10.14;64.74;96890.20;105909;1254;61922;-26
2023/03/09 09:58:36;;;;;;;6.30;3.80;;;;;;;10.14;64.22;96890.84;105700;1258;61173;-25
2023/03/09 10:01:20;;;;;;;5.80;3.70;;;;;;;10.03;65.08;96895.54;105686;1258;74322;-25
2023/03/09 10:03:49;;;;;;;6.90;4.50;;;;;;;9.99;64.89;96887.55;105722;1259;75745;-26
2023/03/09 10:06:21;;;;;;;5.90;4.30;;;;;;;9.96;66.27;96891.83;105730;1260;73092;-27
2023/03/09 10:08:59;;;;;;;5.90;3.80;;;;;;;9.99;65.87;96885.09;105682;1253;62074;-25
2023/03/09 10:11:31;;;;;;;4.40;3.20;;;;;;;9.92;65.65;96881.16;105458;1260;61157;-26
2023/03/09 10:14:06;;;;;;;4.00;3.30;;;;;;;9.78;66.26;96882.28;105706;1254;75338;-27
2023/03/09 10:16:42;;;;;;;5.20;3.80;;;;;;;9.71;66.62;96881.88;105765;1256;75824;-27
2023/03/09 10:19:24;;;;;;;4.00;3.00;;;;;;;9.69;66.66;96881.04;105563;1254;73621;-27
2023/03/09 10:21:56;;;;;;;5.80;3.20;;;;;;;9.74;67.08;96875.90;105591;1254;61641;-27
2023/03/09 10:24:33;;;;;;;4.10;2.50;;;;;;;9.78;66.60;96875.22;105678;1254;61071;-25
2023/03/09 10:27:04;;;;;;;6.50;3.80;;;;;;;9.81;66.62;96875.42;105687;1254;75064;-25
2023/03/09 10:29:36;;;;;;;5.30;3.40;;;;;;;9.73;66.48;96871.94;105702;1254;75839;-26
2023/03/09 10:32:07;;;;;;;5.00;2.90;;;;;;;9.70;67.55;96873.55;105901;1253;74146;-24
2023/03/09 10:34:39;;;;;;;2.80;1.90;;;;;;;9.88;66.95;96869.10;105671;1257;63337;-26
2023/03/09 10:37:32;;;;;;;3.30;2.10;;;;;;;10.43;64.76;96860.17;105471;1253;61240;-25
2023/03/09 10:40:05;;;;;;;2.70;1.90;;;;;;;11.04;64.03;96865.14;105668;1254;75141;-25
2023/03/09 10:42:34;;;;;;;;;;;;;;;11.14;63.51;96863.07;105602;1259;75874;-26
2023/03/09 10:45:22;;;;;;;1.90;1.50;;;;;;;11.05;62.85;96856.95;105820;1254;74062;-23
2023/03/09 10:48:07;;;;;;;3.00;1.60;;;;;;;10.98;63.32;96851.88;105442;1253;61535;-23
2023/03/09 10:50:36;;;;;;;2.00;1.70;;;;;;;10.84;62.79;96844.84;105638;1258;61514;-23
2023/03/09 10:53:23;;;;;;;3.90;1.80;;;;;;;10.81;63.59;96843.48;105580;1254;74696;-23
2023/03/09 10:55:52;;;;;;;3.90;1.70;;;;;;;10.71;63.60;96830.64;105653;1259;74840;-24
2023/03/09 10:58:32;;;;;;;3.80;1.60;;;;;;;10.67;65.23;96833.08;105673;1254;74105;-25
2023/03/09 11:01:11;;;;;;;2.20;1.70;;;;;;;10.70;64.94;96834.27;105534;1254;61984;-25
2023/03/09 11:03:41;;;;;;;3.30;1.80;;;;;;;10.66;64.58;96827.86;105654;1260;61536;-25
2023/03/09 11:06:09;;;;;;;2.00;1.30;;;;;;;10.61;64.63;96830.07;105639;1254;75382;-25
2023/03/09 11:08:37;;;;;;;3.50;1.50;;;;;;;10.56;64.43;96830.36;105720;1254;75835;-24
2023/03/09 11:11:25;;;;;;;2.70;2.10;;;;;;;10.58;64.47;96824.80;105497;1253;75860;-24
2023/03/09 11:13:55;;;;;;;2.60;1.70;;;;;;;10.58;64.82;96816.87;105511;1259;61186;-24
2023/03/09 11:16:25;;;;;;;3.60;1.90;;;;;;;10.56;64.84;96814.29;105886;1256;61803;-24
2023/03/09 11:19:12;;;;;;;2.20;1.50;;;;;;;10.55;64.28;96806.20;105682;1259;74341;-24
2023/03/09 11:22:03;;;;;;;3.20;1.70;;;;;;;10.44;64.35;96808.16;105543;1258;75809;-24
2023/03/09 11:24:34;;;;;;;3.40;1.60;;;;;;;10.37;64.91;96814.95;105758;1254;74262;-24
2023/03/09 11:27:16;;;;;;;1.50;1.20;;;;;;;10.29;65.91;96818.23;105490;1253;61910;-26
2023/03/09 11:29:58;;;;;;;2.40;1.60;;;;;;;10.21;66.48;96818.77;105640;1254;61181;-24
2023/03/09 11:32:25;;;;;;;3.70;1.60;;;;;;;10.23;65.38;96821.44;105431;1254;75215;-24
2023/03/09 11:34:54;;;;;;;2.90;1.50;;;;;;;10.25;66.04;96824.91;105685;1254;75785;-26
2023/03/09 11:37:38;;;;;;;6.40;1.70;;;;;;;10.28;65.80;96824.08;105853;1254;74056;-23
2023/03/09 11:40:14;;;;;;;1.90;1.60;;;;;;;10.30;65.74;96824.86;105534;1259;61705;-23
2023/03/09 11:42:53;;;;;;;3.70;1.60;;;;;;;10.28;66.12;96825.60;105658;1254;61096;-23
2023/03/09 11:45:23;;;;;;;1.80;1.20;;;;;;;10.32;65.69;96828.33;105710;1257;74417;-23
2023/03/09 11:47:55;;;;;;;2.40;1.40;;;;;;;10.76;64.53;96830.95;105447;1254;74759;-23
2023/03/09 11:50:25;;;;;;;1.60;1.40;;;;;;;11.14;63.65;96836.53;105614;1254;73085;-23
2023/03/09 11:53:05;;;;;;;1.80;1.10;;;;;;;11.16;63.69;96832.23;105666;1260;61090;-24
2023/03/09 11:55:45;;;;;;;2.80;1.40;;;;;;;10.93;64.29;96827.09;105841;1257;61607;-23
2023/03/09 11:58:18;;;;;;;1.50;1.10;;;;;;;10.71;64.25;96825.56;105643;1254;75541;-25
2023/03/09 12:00:47;;;;;;;2.50;1.80;;;;;;;10.54;64.47;96825.59;105719;1259;75824;-23
2023/03/09 12:03:16;;;;;;;1.70;1.50;;;;;;;10.36;65.26;96826.77;105674;1257;74180;-24
2023/03/09 12:06:24;;;;;;;4.00;2.10;;;;;;;10.24;65.24;96826.77;105717;1254;61154;-25
2023/03/09 12:08:59;;;;;;;2.80;1.50;;;;;;;10.09;66.33;96824.11;105592;1260;61668;-25
2023/03/09 12:11:34;;;;;;;3.10;1.90;;;;;;;9.96;67.01;96822.19;105663;1254;75355;-24
2023/03/09 12:14:19;;;;;;;3.00;1.90;;;;;;;9.87;67.13;96820.41;105727;1254;75816;-25
2023/03/09 12:16:54;;;;;;;2.80;2.00;;;;;;;9.78;67.73;96816.58;105553;1254;74029;-24
2023/03/09 12:19:24;;;;;;;2.90;1.90;;;;;;;9.70;68.58;96819.60;105704;1252;62222;-24
2023/03/09 12:22:13;;;;;;;3.20;2.00;;;;;;;9.64;68.90;96816.16;105711;1254;61150;-24
2023/03/09 12:24:43;;;;;;;2.60;1.50;;;;;;;10.08;66.46;96811.38;105674;1254;74937;-25
2023/03/09 12:27:10;;;;;;;2.10;1.90;;;;;;;10.38;65.59;96812.73;105689;1260;75640;-25
2023/03/09 12:29:50;;;;;;;2.10;1.70;;;;;;;10.33;65.45;96803.34;105916;1255;74638;-24
2023/03/09 12:32:28;;;;;;;2.10;1.80;;;;;;;10.24;66.01;96807.40;105646;1254;61759;-25
2023/03/09 12:35:01;;;;;;;4.30;1.80;;;;;;;10.06;66.21;96808.91;105706;1253;61845;-24
2023/03/09 12:37:35;;;;;;;2.50;2.00;;;;;;;9.86;67.78;96807.15;105641;1254;75229;-24
2023/03/09 12:40:16;;;;;;;4.20;2.70;;;;;;;9.74;68.83;96805.56;105738;1259;75838;-24
2023/03/09 12:42:47;;;;;;;2.60;1.60;;;;;;;9.57;69.73;96799.56;105669;1258;74047;-24
2023/03/09 16:18:43;;;;;;;8.90;5.80;;;;;;;5.94;100.00;96757.06;103554;1281;615754;-25
2023/03/09 16:21:11;;;;;;;6.40;5.00;;;;;;;6.96;100.00;96758.40;105241;1265;63375;-25
2023/03/09 16:23:42;;;;;;;8.80;5.90;;;;;;;8.13;100.00;96754.00;105204;1267;61711;-23
2023/03/09 16:26:13;;;;;;;7.40;5.10;;;;;;;8.57;100.00;96759.53;105241;1264;73727;-23
2023/03/09 16:28:40;;;;;;;6.30;4.80;;;;;;;8.53;99.03;96759.58;104883;1270;75756;-24
2023/03/09 16:31:14;;;;;;;5.10;4.20;;;;;;;8.33;96.75;96764.25;103811;1261;2015262;-24
2023/03/09 16:33:44;;;;;;;5.10;3.80;;;;;;;8.19;95.12;96763.73;105187;1262;63259;-23
2023/03/09 16:36:12;;;;;;;5.00;4.20;;;;;;;8.62;93.17;96763.78;105254;1262;61400;-23
2023/03/09 16:38:40;;;;;;;6.40;4.10;;;;;;;8.86;90.21;96764.65;105314;1261;73501;-24
2023/03/09 16:41:09;;;;;;;4.60;4.00;;;;;;;8.73;89.13;96768.13;105115;1266;75776;-23
2023/03/09 16:43:37;;;;;;;5.50;4.30;;;;;;;8.50;89.59;96770.27;104845;1269;73390;-24
2023/03/09 16:46:04;;;;;;;4.00;3.00;;;;;;;8.31;90.39;96774.98;105045;1263;63263;-23
2023/03/09 16:48:32;;;;;;;4.70;3.30;;;;;;;8.74;90.56;96776.50;105147;1265;61679;-23